Time;durP1;ratioP1;P1;durP2;ratioP2;P2;SDS_P1;SDS_P2;PMS_P1;PMS_P2;Temp;Humidity;BMP_temperature;BMP_pressure;BME280_temperature;BME280_humidity;BME280_pressure;Samples;Min_cycle;Max_cycle;Signal;HPM_P1;HPM_P2
2021/07/22 00:00:32;;;;;;;;;;;22.40;58.10;;;;;;5038691;28;19935;-73
2021/07/22 00:02:59;;;;;;;;;;;22.40;58.40;;;;;;5038350;28;19925;-73
2021/07/22 00:05:25;;;;;;;;;;;22.40;58.00;;;;;;5041840;28;19936;-73
2021/07/22 00:07:58;;;;;;;;;;;22.40;58.30;;;;;;5038533;28;20035;-73
2021/07/22 00:10:25;;;;;;;;;;;22.40;58.10;;;;;;5036813;28;20444;-73
2021/07/22 00:12:51;;;;;;;;;;;22.40;59.10;;;;;;5043082;28;20380;-73
2021/07/22 00:15:18;;;;;;;;;;;22.30;58.00;;;;;;5042622;28;20004;-73
2021/07/22 00:17:45;;;;;;;;;;;22.30;58.90;;;;;;5050786;28;19968;-72
2021/07/22 00:20:12;;;;;;;;;;;22.30;57.70;;;;;;5047326;28;20428;-72
2021/07/22 00:22:39;;;;;;;;;;;22.30;58.30;;;;;;5048982;28;20423;-73
2021/07/22 00:25:06;;;;;;;;;;;22.30;58.60;;;;;;5046062;28;19986;-72
2021/07/22 00:27:32;;;;;;;;;;;22.30;59.30;;;;;;5048540;28;20004;-72
2021/07/22 00:29:59;;;;;;;;;;;22.20;58.70;;;;;;5038713;28;19947;-72
2021/07/22 00:32:26;;;;;;;;;;;22.20;58.70;;;;;;5053700;28;19924;-72
2021/07/22 00:34:52;;;;;;;;;;;22.20;58.70;;;;;;5057214;28;20015;-72
2021/07/22 00:37:19;;;;;;;;;;;22.20;58.30;;;;;;5046033;28;19971;-72
2021/07/22 00:39:46;;;;;;;;;;;22.20;59.10;;;;;;5039740;28;20322;-72
2021/07/22 00:42:13;;;;;;;;;;;22.20;58.80;;;;;;5039685;28;20023;-72
2021/07/22 00:44:39;;;;;;;;;;;22.20;58.60;;;;;;5046508;28;20007;-72
2021/07/22 00:47:06;;;;;;;;;;;22.10;58.50;;;;;;5039664;28;19925;-73
2021/07/22 00:49:33;;;;;;;;;;;22.10;58.70;;;;;;5048446;28;20422;-73
2021/07/22 00:51:59;;;;;;;;;;;22.10;59.40;;;;;;5044122;28;19933;-72
2021/07/22 00:54:26;;;;;;;;;;;22.20;59.00;;;;;;5043805;28;20388;-72
2021/07/22 00:56:53;;;;;;;;;;;22.10;58.80;;;;;;5045692;28;20435;-73
2021/07/22 00:59:19;;;;;;;;;;;22.10;58.70;;;;;;5042638;28;20020;-73
2021/07/22 01:01:46;;;;;;;;;;;22.10;60.00;;;;;;5038655;28;19936;-73
2021/07/22 01:04:13;;;;;;;;;;;22.10;58.80;;;;;;5051172;28;19932;-73
2021/07/22 01:06:39;;;;;;;;;;;22.10;59.30;;;;;;5061725;28;19940;-73
2021/07/22 01:09:06;;;;;;;;;;;22.10;59.00;;;;;;5047066;28;20008;-73
2021/07/22 01:11:33;;;;;;;;;;;22.10;58.90;;;;;;5047438;28;19999;-73
2021/07/22 01:13:59;;;;;;;;;;;22.10;59.20;;;;;;5048432;28;19983;-73
2021/07/22 01:16:26;;;;;;;;;;;22.00;59.50;;;;;;5042759;28;20004;-73
2021/07/22 01:18:53;;;;;;;;;;;22.00;58.70;;;;;;5050682;28;19925;-73
2021/07/22 01:21:21;;;;;;;;;;;22.00;59.60;;;;;;5046748;28;20534;-73
2021/07/22 01:23:47;;;;;;;;;;;22.00;59.20;;;;;;5047807;28;19929;-73
2021/07/22 01:26:14;;;;;;;;;;;22.00;59.60;;;;;;5057961;28;20013;-73
2021/07/22 01:28:40;;;;;;;;;;;21.90;59.50;;;;;;5047416;28;20003;-73
2021/07/22 01:31:07;;;;;;;;;;;21.90;59.30;;;;;;5048938;28;20023;-73
2021/07/22 01:33:34;;;;;;;;;;;21.90;59.70;;;;;;5050659;28;19933;-73
2021/07/22 01:36:00;;;;;;;;;;;21.90;59.60;;;;;;5052579;28;20012;-73
2021/07/22 01:38:27;;;;;;;;;;;21.90;60.10;;;;;;5045948;28;19959;-72
2021/07/22 01:40:54;;;;;;;;;;;21.90;59.30;;;;;;5049408;28;20276;-73
2021/07/22 01:43:21;;;;;;;;;;;22.00;61.40;;;;;;5040823;28;20019;-73
2021/07/22 01:45:47;;;;;;;;;;;22.00;59.40;;;;;;5040882;28;20008;-73
2021/07/22 01:48:14;;;;;;;;;;;22.00;59.90;;;;;;5040663;28;20028;-73
2021/07/22 01:50:41;;;;;;;;;;;21.90;59.70;;;;;;5044511;28;20019;-73
2021/07/22 01:53:08;;;;;;;;;;;22.00;60.40;;;;;;5041332;28;19928;-73
2021/07/22 01:55:34;;;;;;;;;;;22.00;59.80;;;;;;5046630;28;20030;-73
2021/07/22 01:58:01;;;;;;;;;;;21.90;59.80;;;;;;5040436;28;19925;-73
2021/07/22 02:00:28;;;;;;;;;;;21.80;61.10;;;;;;5036861;28;20035;-73
2021/07/22 02:02:54;;;;;;;;;;;21.90;62.10;;;;;;5047775;28;20007;-73
2021/07/22 02:05:21;;;;;;;;;;;21.90;62.20;;;;;;5050128;28;19925;-74
2021/07/22 02:07:48;;;;;;;;;;;21.80;60.70;;;;;;5044364;28;20028;-73
2021/07/22 02:10:14;;;;;;;;;;;21.90;60.70;;;;;;5046758;28;20033;-73
2021/07/22 02:12:41;;;;;;;;;;;21.90;61.10;;;;;;5042394;28;20281;-73
2021/07/22 02:15:08;;;;;;;;;;;21.70;60.80;;;;;;5040158;28;19929;-73
2021/07/22 02:17:34;;;;;;;;;;;21.70;61.20;;;;;;5047403;28;20016;-72
2021/07/22 02:20:01;;;;;;;;;;;21.70;61.40;;;;;;5049254;28;20566;-73
2021/07/22 02:22:28;;;;;;;;;;;21.60;62.40;;;;;;5048437;28;20023;-73
2021/07/22 02:24:54;;;;;;;;;;;21.60;62.00;;;;;;5050658;28;20008;-74
2021/07/22 02:27:21;;;;;;;;;;;21.60;62.10;;;;;;5041987;28;19925;-73
2021/07/22 02:29:48;;;;;;;;;;;21.60;61.80;;;;;;5041282;28;20352;-73
2021/07/22 02:32:14;;;;;;;;;;;21.50;61.70;;;;;;5042208;28;20024;-74
2021/07/22 02:34:41;;;;;;;;;;;21.50;61.90;;;;;;5041934;28;19925;-73
2021/07/22 02:37:08;;;;;;;;;;;21.50;62.20;;;;;;5041598;28;20372;-73
2021/07/22 02:39:38;;;;;;;;;;;21.50;62.80;;;;;;5060509;28;20075;-73
2021/07/22 02:42:05;;;;;;;;;;;21.50;62.30;;;;;;5047318;28;19953;-73
2021/07/22 02:44:38;;;;;;;;;;;21.50;62.00;;;;;;5046263;28;20459;-73
2021/07/22 02:47:11;;;;;;;;;;;21.50;62.40;;;;;;5044997;28;20451;-73
2021/07/22 02:49:38;;;;;;;;;;;21.50;62.60;;;;;;5049455;28;19928;-73
2021/07/22 02:52:06;;;;;;;;;;;21.50;62.80;;;;;;5048450;28;20012;-73
2021/07/22 02:54:32;;;;;;;;;;;21.60;64.40;;;;;;5051468;28;19968;-73
2021/07/22 02:56:59;;;;;;;;;;;21.50;62.90;;;;;;5043738;28;19942;-73
2021/07/22 02:59:26;;;;;;;;;;;21.50;64.10;;;;;;5047403;28;20481;-71
2021/07/22 03:01:52;;;;;;;;;;;21.50;63.80;;;;;;5038414;28;20031;-72
2021/07/22 03:04:19;;;;;;;;;;;21.60;63.40;;;;;;5043160;28;19958;-72
2021/07/22 03:06:46;;;;;;;;;;;21.50;63.20;;;;;;5047276;28;19964;-72
2021/07/22 03:09:13;;;;;;;;;;;21.50;63.90;;;;;;5050079;28;20339;-73
2021/07/22 03:11:39;;;;;;;;;;;21.50;65.30;;;;;;5046383;28;20019;-72
2021/07/22 03:14:06;;;;;;;;;;;21.40;64.50;;;;;;5050096;28;20015;-72
2021/07/22 03:16:33;;;;;;;;;;;21.30;64.40;;;;;;5046291;28;19925;-72
2021/07/22 03:18:59;;;;;;;;;;;21.30;64.50;;;;;;5048079;28;19935;-72
2021/07/22 03:21:26;;;;;;;;;;;21.40;65.20;;;;;;5051635;28;19931;-72
2021/07/22 03:23:53;;;;;;;;;;;21.40;64.60;;;;;;5045669;28;20019;-73
2021/07/22 03:26:19;;;;;;;;;;;21.50;65.60;;;;;;5038675;28;20662;-73
2021/07/22 03:28:46;;;;;;;;;;;21.40;65.00;;;;;;5045783;28;19929;-72
2021/07/22 03:31:13;;;;;;;;;;;21.50;64.00;;;;;;5042389;28;20012;-72
2021/07/22 03:33:40;;;;;;;;;;;21.30;63.70;;;;;;5042786;28;19940;-73
2021/07/22 03:36:06;;;;;;;;;;;21.30;64.70;;;;;;5048154;28;20359;-72
2021/07/22 03:38:33;;;;;;;;;;;21.10;66.20;;;;;;5050791;28;20024;-72
2021/07/22 03:41:00;;;;;;;;;;;21.10;67.00;;;;;;5044549;28;20331;-72
2021/07/22 03:43:26;;;;;;;;;;;21.10;65.20;;;;;;5041236;28;20024;-72
2021/07/22 03:45:57;;;;;;;;;;;21.20;65.30;;;;;;5040449;28;19931;-73
2021/07/22 03:48:24;;;;;;;;;;;21.20;64.30;;;;;;5045015;28;20019;-73
2021/07/22 03:50:51;;;;;;;;;;;21.20;65.50;;;;;;5042184;28;20004;-73
2021/07/22 03:53:17;;;;;;;;;;;21.20;64.80;;;;;;5047246;28;19968;-73
2021/07/22 03:55:44;;;;;;;;;;;21.10;65.60;;;;;;5047593;28;20024;-74
2021/07/22 03:58:11;;;;;;;;;;;21.10;65.10;;;;;;5039124;28;20279;-73
2021/07/22 04:00:37;;;;;;;;;;;21.10;65.50;;;;;;5036766;28;20527;-73
2021/07/22 04:03:04;;;;;;;;;;;21.10;65.00;;;;;;5045654;28;19951;-73
2021/07/22 04:05:31;;;;;;;;;;;21.00;65.10;;;;;;5042503;28;19931;-73
2021/07/22 04:07:58;;;;;;;;;;;21.10;67.20;;;;;;5046169;28;20028;-73
2021/07/22 04:10:26;;;;;;;;;;;21.30;66.40;;;;;;5046995;28;20031;-73
2021/07/22 04:12:59;;;;;;;;;;;21.20;66.10;;;;;;5044554;28;19968;-73
2021/07/22 04:15:26;;;;;;;;;;;21.20;64.90;;;;;;5041877;28;19964;-72
2021/07/22 04:17:53;;;;;;;;;;;21.20;64.90;;;;;;5039874;28;20364;-73
2021/07/22 04:20:20;;;;;;;;;;;21.20;65.80;;;;;;5035092;28;20019;-73
2021/07/22 04:22:47;;;;;;;;;;;21.20;64.90;;;;;;5049978;28;20618;-73
2021/07/22 04:25:14;;;;;;;;;;;21.10;64.90;;;;;;5049241;28;20000;-73
2021/07/22 04:27:41;;;;;;;;;;;20.90;65.30;;;;;;5050691;28;19956;-73
2021/07/22 04:30:09;;;;;;;;;;;20.90;65.70;;;;;;5047660;28;19964;-73
2021/07/22 04:32:36;;;;;;;;;;;21.00;65.50;;;;;;5042176;28;19978;-73
2021/07/22 04:35:03;;;;;;;;;;;20.90;65.60;;;;;;5043716;28;19971;-73
2021/07/22 04:37:30;;;;;;;;;;;21.00;66.60;;;;;;5046969;28;20404;-72
2021/07/22 04:39:57;;;;;;;;;;;20.90;65.00;;;;;;5054346;28;19970;-73
2021/07/22 04:42:23;;;;;;;;;;;20.90;65.10;;;;;;5044498;28;20015;-73
2021/07/22 04:44:50;;;;;;;;;;;20.90;64.40;;;;;;5043274;28;20024;-72
2021/07/22 04:47:16;;;;;;;;;;;20.90;64.80;;;;;;5040224;28;20044;-72
2021/07/22 04:49:44;;;;;;;;;;;20.90;65.00;;;;;;5047602;28;19929;-72
2021/07/22 04:52:10;;;;;;;;;;;20.90;64.50;;;;;;5046906;28;20389;-71
2021/07/22 04:54:37;;;;;;;;;;;20.90;66.00;;;;;;5053650;28;19956;-71
2021/07/22 04:57:04;;;;;;;;;;;20.90;64.20;;;;;;5047449;28;19933;-71
2021/07/22 04:59:31;;;;;;;;;;;20.90;65.20;;;;;;5053198;28;19924;-71
2021/07/22 05:01:57;;;;;;;;;;;20.90;64.80;;;;;;5048238;28;19925;-72
2021/07/22 05:04:24;;;;;;;;;;;21.00;64.80;;;;;;5041547;28;19937;-72
2021/07/22 05:06:51;;;;;;;;;;;20.90;65.00;;;;;;5044727;28;19925;-71
2021/07/22 05:09:17;;;;;;;;;;;21.00;65.00;;;;;;5046702;28;19979;-74
2021/07/22 05:11:44;;;;;;;;;;;20.90;66.40;;;;;;5047897;28;20011;-74
2021/07/22 05:14:11;;;;;;;;;;;21.10;66.10;;;;;;5052290;28;19924;-74
2021/07/22 05:16:38;;;;;;;;;;;21.10;65.60;;;;;;5055162;28;19943;-75
2021/07/22 05:19:05;;;;;;;;;;;21.20;65.30;;;;;;5052077;28;19932;-74
2021/07/22 05:21:32;;;;;;;;;;;21.10;64.30;;;;;;5048935;28;19931;-76
2021/07/22 05:23:58;;;;;;;;;;;21.10;66.00;;;;;;5046997;28;20391;-74
2021/07/22 05:26:25;;;;;;;;;;;21.30;64.90;;;;;;5047223;28;20023;-75
2021/07/22 05:28:52;;;;;;;;;;;21.30;66.30;;;;;;5044732;28;19979;-76
2021/07/22 05:31:18;;;;;;;;;;;21.20;64.60;;;;;;5039611;28;19964;-78
2021/07/22 05:33:45;;;;;;;;;;;21.20;65.60;;;;;;5046245;28;20376;-77
2021/07/22 05:36:12;;;;;;;;;;;21.20;64.90;;;;;;5045685;28;19995;-76
2021/07/22 05:38:38;;;;;;;;;;;21.30;66.40;;;;;;5054363;28;20570;-76
2021/07/22 05:41:06;;;;;;;;;;;21.30;68.50;;;;;;5044921;28;20455;-75
2021/07/22 05:43:33;;;;;;;;;;;21.60;70.40;;;;;;5047574;28;20007;-75
2021/07/22 05:45:59;;;;;;;;;;;21.80;70.70;;;;;;5052553;28;20566;-76
2021/07/22 05:48:26;;;;;;;;;;;21.80;68.80;;;;;;5048544;28;19942;-76
2021/07/22 05:50:53;;;;;;;;;;;21.80;68.50;;;;;;5044732;28;20024;-75
2021/07/22 05:53:20;;;;;;;;;;;21.90;65.70;;;;;;5045742;28;20019;-74
2021/07/22 05:55:47;;;;;;;;;;;21.90;65.30;;;;;;5032976;28;19972;-75
2021/07/22 05:58:14;;;;;;;;;;;22.00;66.10;;;;;;5034666;28;19960;-75
2021/07/22 06:00:40;;;;;;;;;;;22.00;66.50;;;;;;5029134;28;20665;-75
2021/07/22 06:03:07;;;;;;;;;;;22.00;64.90;;;;;;5028963;28;19969;-75
2021/07/22 06:05:34;;;;;;;;;;;21.80;62.70;;;;;;5028848;28;19960;-75
2021/07/22 06:08:02;;;;;;;;;;;21.60;63.30;;;;;;5031509;28;19936;-76
2021/07/22 06:10:29;;;;;;;;;;;21.60;63.90;;;;;;5029769;28;23165;-76
2021/07/22 06:12:56;;;;;;;;;;;21.50;63.90;;;;;;5030954;28;19932;-77
2021/07/22 06:15:23;;;;;;;;;;;21.50;64.40;;;;;;5032268;28;20316;-76
2021/07/22 06:17:50;;;;;;;;;;;21.60;64.40;;;;;;5030023;28;19933;-76
2021/07/22 06:20:17;;;;;;;;;;;21.50;64.10;;;;;;5026823;28;20036;-76
2021/07/22 06:22:46;;;;;;;;;;;21.50;64.40;;;;;;5031499;28;19936;-76
2021/07/22 06:25:14;;;;;;;;;;;21.40;64.80;;;;;;5028983;28;19968;-76
2021/07/22 06:27:41;;;;;;;;;;;21.40;64.20;;;;;;5032535;28;20015;-75
2021/07/22 06:30:08;;;;;;;;;;;21.40;64.60;;;;;;5030955;28;19933;-76
2021/07/22 06:32:35;;;;;;;;;;;21.40;65.20;;;;;;5030203;28;20057;-75
2021/07/22 06:35:02;;;;;;;;;;;21.30;64.50;;;;;;5030753;28;20387;-76
2021/07/22 06:37:29;;;;;;;;;;;21.30;64.90;;;;;;5032325;28;19929;-75
2021/07/22 06:39:55;;;;;;;;;;;21.40;65.40;;;;;;5032915;28;20670;-76
2021/07/22 06:42:22;;;;;;;;;;;21.50;64.80;;;;;;5029263;28;20015;-76
2021/07/22 06:44:49;;;;;;;;;;;21.50;65.90;;;;;;5031035;28;20060;-75
2021/07/22 06:47:15;;;;;;;;;;;21.50;64.10;;;;;;5027616;28;19925;-75
2021/07/22 06:49:42;;;;;;;;;;;21.50;65.40;;;;;;5028471;28;19972;-76
2021/07/22 06:52:09;;;;;;;;;;;21.50;64.70;;;;;;5029060;28;20401;-75
2021/07/22 06:54:37;;;;;;;;;;;21.60;65.20;;;;;;5031392;28;20035;-75
2021/07/22 06:57:03;;;;;;;;;;;21.50;64.10;;;;;;5030706;28;19939;-75
2021/07/22 06:59:30;;;;;;;;;;;21.50;64.40;;;;;;5028945;28;20367;-75
2021/07/22 07:01:57;;;;;;;;;;;21.50;64.30;;;;;;5051260;28;20004;-75
2021/07/22 07:04:23;;;;;;;;;;;21.50;64.10;;;;;;5029066;28;20386;-76
2021/07/22 07:06:50;;;;;;;;;;;21.50;64.80;;;;;;5028727;28;19939;-75
2021/07/22 07:09:17;;;;;;;;;;;21.50;64.20;;;;;;5030176;28;20392;-76
2021/07/22 07:11:43;;;;;;;;;;;21.60;64.10;;;;;;5026504;28;19933;-76
2021/07/22 07:14:10;;;;;;;;;;;21.60;65.40;;;;;;5029338;28;20416;-75
2021/07/22 07:16:40;;;;;;;;;;;21.60;64.50;;;;;;5029992;28;19929;-76
2021/07/22 07:19:09;;;;;;;;;;;21.70;63.90;;;;;;5026645;28;20043;-76
2021/07/22 07:21:37;;;;;;;;;;;21.70;63.00;;;;;;5027228;28;20020;-76
2021/07/22 07:24:04;;;;;;;;;;;21.70;62.70;;;;;;5030310;28;20023;-76
2021/07/22 07:26:31;;;;;;;;;;;21.80;63.00;;;;;;5027430;28;20415;-76
2021/07/22 07:28:58;;;;;;;;;;;21.80;64.80;;;;;;5029147;28;20407;-76
2021/07/22 07:31:25;;;;;;;;;;;21.80;63.20;;;;;;5028045;28;20065;-76
2021/07/22 07:33:51;;;;;;;;;;;21.90;65.00;;;;;;5028188;28;20063;-75
2021/07/22 07:36:18;;;;;;;;;;;22.00;65.40;;;;;;5028787;28;19933;-76
2021/07/22 07:38:44;;;;;;;;;;;22.00;64.80;;;;;;5029601;28;20012;-75
2021/07/22 07:41:11;;;;;;;;;;;22.00;63.30;;;;;;5032971;28;20044;-75
2021/07/22 07:43:38;;;;;;;;;;;21.90;63.40;;;;;;5026271;28;20020;-76
2021/07/22 07:46:05;;;;;;;;;;;21.90;63.60;;;;;;5027758;28;20019;-75
2021/07/22 07:48:31;;;;;;;;;;;21.90;62.60;;;;;;5028209;28;19939;-75
2021/07/22 07:50:59;;;;;;;;;;;21.90;63.40;;;;;;5027335;28;19939;-75
2021/07/22 07:53:25;;;;;;;;;;;21.90;63.30;;;;;;5028362;28;19976;-76
2021/07/22 07:55:52;;;;;;;;;;;21.90;64.30;;;;;;5029085;28;20027;-76
2021/07/22 07:58:19;;;;;;;;;;;22.00;64.40;;;;;;5028473;28;20008;-77
2021/07/22 08:00:47;;;;;;;;;;;21.90;63.30;;;;;;5028762;28;19933;-78
2021/07/22 08:03:18;;;;;;;;;;;22.00;65.60;;;;;;5028822;28;20019;-77
2021/07/22 08:05:45;;;;;;;;;;;22.10;64.40;;;;;;5028693;28;20067;-77
2021/07/22 08:08:12;;;;;;;;;;;22.10;63.90;;;;;;5026126;28;20067;-78
2021/07/22 08:10:41;;;;;;;;;;;22.20;63.60;;;;;;5027406;28;20024;-77
2021/07/22 08:13:08;;;;;;;;;;;22.20;63.20;;;;;;5027172;28;20019;-77
2021/07/22 08:15:36;;;;;;;;;;;22.20;62.80;;;;;;5030244;28;20439;-76
2021/07/22 08:18:03;;;;;;;;;;;22.30;62.30;;;;;;5030823;28;19968;-77
2021/07/22 08:20:29;;;;;;;;;;;22.30;62.90;;;;;;5030432;28;19956;-77
2021/07/22 08:22:56;;;;;;;;;;;22.40;62.40;;;;;;5031297;28;19951;-77
2021/07/22 08:25:23;;;;;;;;;;;22.40;64.50;;;;;;5029722;28;19960;-76
2021/07/22 08:27:50;;;;;;;;;;;22.30;62.80;;;;;;5028223;28;20459;-77
2021/07/22 08:30:16;;;;;;;;;;;22.40;61.90;;;;;;5028913;28;19972;-77
2021/07/22 08:32:43;;;;;;;;;;;22.40;63.90;;;;;;5027550;28;20328;-77
2021/07/22 08:35:10;;;;;;;;;;;22.40;61.50;;;;;;5027879;28;19967;-77
2021/07/22 08:37:37;;;;;;;;;;;22.40;64.20;;;;;;5031829;28;20294;-78
2021/07/22 08:40:05;;;;;;;;;;;22.50;62.40;;;;;;5032043;28;19939;-80
2021/07/22 08:42:35;;;;;;;;;;;22.50;62.40;;;;;;5028828;28;20422;-77
2021/07/22 08:45:02;;;;;;;;;;;22.50;65.00;;;;;;5029458;28;20020;-77
2021/07/22 08:47:30;;;;;;;;;;;22.60;62.00;;;;;;5043227;28;19932;-77
2021/07/22 08:49:57;;;;;;;;;;;22.60;60.90;;;;;;5025003;28;20355;-77
2021/07/22 08:52:23;;;;;;;;;;;22.50;62.40;;;;;;5028749;28;19937;-77
2021/07/22 08:54:50;;;;;;;;;;;22.60;61.60;;;;;;5027947;28;19935;-77
2021/07/22 08:57:17;;;;;;;;;;;22.60;61.30;;;;;;5029509;28;19929;-76
2021/07/22 08:59:46;;;;;;;;;;;22.60;62.50;;;;;;5032492;28;20577;-76
2021/07/22 09:02:16;;;;;;;;;;;22.60;63.40;;;;;;5031991;28;19991;-76
2021/07/22 09:04:56;;;;;;;;;;;22.70;64.30;;;;;;5033152;28;20016;-77
2021/07/22 09:07:24;;;;;;;;;;;22.70;64.00;;;;;;5033911;28;20016;-78
2021/07/22 09:10:09;;;;;;;;;;;22.70;62.20;;;;;;5034574;28;20047;-76
2021/07/22 09:12:36;;;;;;;;;;;22.70;62.60;;;;;;5037830;28;20028;-76
2021/07/22 09:15:03;;;;;;;;;;;22.80;65.60;;;;;;5036651;28;19933;-77
2021/07/22 09:17:50;;;;;;;;;;;22.80;62.20;;;;;;5038536;28;19936;-75
2021/07/22 09:20:33;;;;;;;;;;;22.80;61.70;;;;;;5038449;28;20031;-74
2021/07/22 09:23:00;;;;;;;;;;;22.80;61.90;;;;;;5033114;28;20058;-74
2021/07/22 09:25:37;;;;;;;;;;;22.80;63.10;;;;;;5037698;28;19928;-75
2021/07/22 09:28:07;;;;;;;;;;;22.90;62.00;;;;;;5035522;28;21375;-74
2021/07/22 09:30:34;;;;;;;;;;;22.90;61.40;;;;;;5034982;28;20023;-74
2021/07/22 09:33:03;;;;;;;;;;;22.80;60.20;;;;;;5037650;28;20398;-74
2021/07/22 09:35:34;;;;;;;;;;;22.80;63.10;;;;;;5037195;28;19972;-75
2021/07/22 09:38:08;;;;;;;;;;;22.80;60.80;;;;;;5037413;28;19964;-74
2021/07/22 09:40:35;;;;;;;;;;;22.90;64.20;;;;;;5036225;28;19976;-74
2021/07/22 09:43:02;;;;;;;;;;;22.90;61.90;;;;;;5038373;28;19975;-74
2021/07/22 09:45:30;;;;;;;;;;;22.90;60.60;;;;;;5037503;28;20019;-74
2021/07/22 09:48:07;;;;;;;;;;;22.90;63.80;;;;;;5035310;28;20039;-74
2021/07/22 09:50:44;;;;;;;;;;;22.90;64.10;;;;;;5035071;28;19965;-73
2021/07/22 09:53:11;;;;;;;;;;;23.00;60.30;;;;;;5037919;28;20330;-74
2021/07/22 09:55:39;;;;;;;;;;;23.00;60.60;;;;;;5034418;28;19925;-77
2021/07/22 09:58:07;;;;;;;;;;;23.00;63.80;;;;;;5036011;28;20237;-77
2021/07/22 10:00:35;;;;;;;;;;;23.00;63.70;;;;;;5036223;28;20368;-76
2021/07/22 10:03:03;;;;;;;;;;;23.00;63.00;;;;;;5036531;28;19955;-76
2021/07/22 10:05:38;;;;;;;;;;;23.00;61.30;;;;;;5033240;28;20020;-77
2021/07/22 10:08:06;;;;;;;;;;;23.10;60.20;;;;;;5038838;28;20311;-77
2021/07/22 10:10:34;;;;;;;;;;;23.10;60.60;;;;;;5033104;28;20028;-77
2021/07/22 10:13:02;;;;;;;;;;;23.10;62.70;;;;;;5037260;28;19932;-76
2021/07/22 10:15:31;;;;;;;;;;;23.10;62.20;;;;;;5033978;28;19929;-76
2021/07/22 10:17:59;;;;;;;;;;;23.10;61.00;;;;;;5034216;28;20384;-75
2021/07/22 10:20:30;;;;;;;;;;;23.10;62.90;;;;;;5034898;28;20023;-75
2021/07/22 10:22:57;;;;;;;;;;;23.20;64.00;;;;;;5034993;28;19929;-75
2021/07/22 10:25:23;;;;;;;;;;;23.30;63.90;;;;;;5037076;28;20032;-74
2021/07/22 10:27:52;;;;;;;;;;;23.30;62.50;;;;;;5033665;28;19933;-75
2021/07/22 10:30:20;;;;;;;;;;;23.40;60.10;;;;;;5033260;28;19932;-75
2021/07/22 10:32:49;;;;;;;;;;;23.30;62.90;;;;;;5037425;28;20012;-76
2021/07/22 10:35:19;;;;;;;;;;;23.40;61.00;;;;;;5036924;28;19983;-74
2021/07/22 10:38:05;;;;;;;;;;;23.40;59.90;;;;;;5035440;28;20523;-75
2021/07/22 10:40:45;;;;;;;;;;;23.40;62.60;;;;;;5035066;28;20293;-78
2021/07/22 10:43:30;;;;;;;;;;;23.50;63.40;;;;;;5050974;28;20023;-71
2021/07/22 10:45:58;;;;;;;;;;;23.50;62.20;;;;;;5034546;28;20028;-75
2021/07/22 10:48:25;;;;;;;;;;;23.60;63.20;;;;;;5035354;28;20015;-76
2021/07/22 10:50:55;;;;;;;;;;;23.60;63.50;;;;;;5034559;28;20393;-75
2021/07/22 10:53:34;;;;;;;;;;;23.60;62.30;;;;;;5036155;28;20075;-75
2021/07/22 10:56:01;;;;;;;;;;;23.60;62.60;;;;;;5035257;28;19940;-76
2021/07/22 10:58:33;;;;;;;;;;;23.70;62.40;;;;;;5033815;28;19939;-75
2021/07/22 11:01:00;;;;;;;;;;;23.70;61.70;;;;;;5035159;28;20028;-75
2021/07/22 11:03:32;;;;;;;;;;;23.70;61.20;;;;;;5040277;28;20279;-75
2021/07/22 11:06:00;;;;;;;;;;;23.70;60.60;;;;;;5040169;28;19924;-77
2021/07/22 11:08:29;;;;;;;;;;;23.80;60.40;;;;;;5038552;28;19975;-77
2021/07/22 11:11:02;;;;;;;;;;;23.80;61.00;;;;;;5044959;28;20357;-77
2021/07/22 11:13:39;;;;;;;;;;;23.80;60.80;;;;;;5042801;28;19947;-75
2021/07/22 11:16:06;;;;;;;;;;;23.80;59.90;;;;;;5050418;28;19924;-77
2021/07/22 11:18:44;;;;;;;;;;;23.90;59.60;;;;;;5041704;28;20427;-77
2021/07/22 11:21:12;;;;;;;;;;;23.90;59.70;;;;;;5041333;28;20392;-75
2021/07/22 11:23:41;;;;;;;;;;;23.90;59.20;;;;;;5040091;28;19933;-76
2021/07/22 11:26:08;;;;;;;;;;;23.90;59.20;;;;;;5043010;28;19929;-76
2021/07/22 11:28:35;;;;;;;;;;;23.90;58.90;;;;;;5048083;28;19994;-76
2021/07/22 11:31:07;;;;;;;;;;;23.90;59.00;;;;;;5049788;28;19972;-76
2021/07/22 11:33:37;;;;;;;;;;;23.90;58.70;;;;;;5048980;28;20031;-76
2021/07/22 11:36:06;;;;;;;;;;;24.00;58.50;;;;;;5040755;28;19944;-77
2021/07/22 11:38:34;;;;;;;;;;;23.90;58.80;;;;;;5053479;28;20032;-78
2021/07/22 11:41:01;;;;;;;;;;;24.00;58.70;;;;;;5040543;28;19971;-77
2021/07/22 11:43:31;;;;;;;;;;;24.00;58.60;;;;;;5042736;28;20016;-78
2021/07/22 11:45:58;;;;;;;;;;;24.00;58.50;;;;;;5038914;28;20382;-75
2021/07/22 11:48:25;;;;;;;;;;;24.00;58.40;;;;;;5040337;28;19964;-75
2021/07/22 11:51:05;;;;;;;;;;;24.00;58.50;;;;;;5037745;28;20020;-75
2021/07/22 11:53:33;;;;;;;;;;;24.00;57.80;;;;;;5039700;28;20013;-77
2021/07/22 11:56:09;;;;;;;;;;;24.00;58.20;;;;;;5046934;28;20016;-77
2021/07/22 11:58:36;;;;;;;;;;;24.10;57.90;;;;;;5040732;28;20320;-77
2021/07/22 12:01:04;;;;;;;;;;;24.10;58.40;;;;;;5039471;28;19936;-77
2021/07/22 12:03:30;;;;;;;;;;;24.10;58.00;;;;;;5044621;28;19968;-77
2021/07/22 12:05:57;;;;;;;;;;;24.10;57.60;;;;;;5044701;28;20015;-74
2021/07/22 12:08:24;;;;;;;;;;;24.10;57.90;;;;;;5060833;28;20310;-75
2021/07/22 12:10:56;;;;;;;;;;;24.10;57.80;;;;;;5048217;28;19960;-75
2021/07/22 12:13:23;;;;;;;;;;;24.10;57.80;;;;;;5041937;28;19929;-75
2021/07/22 12:15:50;;;;;;;;;;;24.10;57.70;;;;;;5046197;28;19925;-77
2021/07/22 12:18:20;;;;;;;;;;;24.10;57.80;;;;;;5042704;28;19925;-77
2021/07/22 12:20:47;;;;;;;;;;;24.10;57.40;;;;;;5040924;28;20023;-77
2021/07/22 12:23:27;;;;;;;;;;;24.10;57.20;;;;;;5047052;28;19932;-77
2021/07/22 12:25:58;;;;;;;;;;;24.10;57.10;;;;;;5046544;28;19933;-71
2021/07/22 12:28:24;;;;;;;;;;;24.10;57.20;;;;;;5039432;28;20007;-71
2021/07/22 12:30:51;;;;;;;;;;;24.10;56.90;;;;;;5034092;28;19961;-71
2021/07/22 12:33:23;;;;;;;;;;;24.20;57.00;;;;;;5064821;28;19967;-71
2021/07/22 12:35:50;;;;;;;;;;;24.20;56.90;;;;;;5044499;28;20023;-71
2021/07/22 12:38:17;;;;;;;;;;;24.30;56.50;;;;;;5049629;28;19996;-72
2021/07/22 12:40:44;;;;;;;;;;;24.40;56.60;;;;;;5044883;28;20036;-72
2021/07/22 12:43:11;;;;;;;;;;;24.50;56.40;;;;;;5040131;28;19947;-72
2021/07/22 12:45:38;;;;;;;;;;;24.60;56.20;;;;;;5049125;28;20016;-72
2021/07/22 12:48:06;;;;;;;;;;;24.60;55.80;;;;;;5050827;28;19925;-72
2021/07/22 12:50:33;;;;;;;;;;;24.70;55.90;;;;;;5042568;28;20425;-73
2021/07/22 12:53:03;;;;;;;;;;;24.60;55.70;;;;;;5041097;28;20419;-73
2021/07/22 12:55:30;;;;;;;;;;;24.60;55.60;;;;;;5056148;28;19924;-72
2021/07/22 12:57:56;;;;;;;;;;;24.60;55.50;;;;;;5044972;28;19924;-73
2021/07/22 13:00:24;;;;;;;;;;;24.60;55.40;;;;;;5050215;28;19983;-72
2021/07/22 13:02:51;;;;;;;;;;;24.60;55.40;;;;;;5046869;28;20019;-72
2021/07/22 13:05:18;;;;;;;;;;;24.60;55.40;;;;;;5042526;28;19929;-73
2021/07/22 13:07:45;;;;;;;;;;;24.60;55.30;;;;;;5053482;28;19979;-72
2021/07/22 13:10:11;;;;;;;;;;;24.60;55.20;;;;;;5046415;28;19999;-73
2021/07/22 13:12:38;;;;;;;;;;;24.60;55.20;;;;;;5060889;28;20032;-73
2021/07/22 13:15:05;;;;;;;;;;;24.60;55.00;;;;;;5053058;28;20551;-73
2021/07/22 13:17:38;;;;;;;;;;;24.60;55.00;;;;;;5047528;28;19961;-73
2021/07/22 13:20:05;;;;;;;;;;;24.60;54.90;;;;;;5043065;28;20015;-73
2021/07/22 13:22:32;;;;;;;;;;;24.60;55.00;;;;;;5049945;28;19924;-72
2021/07/22 13:24:59;;;;;;;;;;;24.50;55.00;;;;;;5050072;28;20003;-72
2021/07/22 13:27:26;;;;;;;;;;;24.50;54.90;;;;;;5044265;28;20019;-73
2021/07/22 13:29:52;;;;;;;;;;;24.50;54.50;;;;;;5046116;28;20011;-71
2021/07/22 13:32:19;;;;;;;;;;;24.50;54.50;;;;;;5050101;28;20027;-73
2021/07/22 13:34:46;;;;;;;;;;;24.50;55.10;;;;;;5049872;28;19929;-73
2021/07/22 13:37:14;;;;;;;;;;;24.50;55.30;;;;;;5052235;28;19968;-72
2021/07/22 13:39:41;;;;;;;;;;;24.50;54.90;;;;;;5048982;28;20398;-73
2021/07/22 13:42:08;;;;;;;;;;;24.50;55.00;;;;;;5047379;28;20275;-73
2021/07/22 13:44:34;;;;;;;;;;;24.50;55.00;;;;;;5046551;28;19964;-72
2021/07/22 13:47:01;;;;;;;;;;;24.50;54.90;;;;;;5043417;28;20039;-72
2021/07/22 13:49:28;;;;;;;;;;;24.50;55.10;;;;;;5040908;28;20402;-73
2021/07/22 13:51:55;;;;;;;;;;;24.50;54.90;;;;;;5045273;28;20015;-72
2021/07/22 13:54:21;;;;;;;;;;;24.50;54.90;;;;;;5044367;28;20319;-73
2021/07/22 13:56:48;;;;;;;;;;;24.50;54.80;;;;;;5045598;28;19967;-73
2021/07/22 13:59:15;;;;;;;;;;;24.50;54.70;;;;;;5047000;28;20359;-72
2021/07/22 14:01:41;;;;;;;;;;;24.50;54.80;;;;;;5046921;28;19971;-73
2021/07/22 14:04:08;;;;;;;;;;;24.50;54.70;;;;;;5045381;28;19971;-72
2021/07/22 14:06:35;;;;;;;;;;;24.50;54.70;;;;;;5046194;28;20643;-72
2021/07/22 14:09:02;;;;;;;;;;;24.50;54.50;;;;;;5042025;28;19925;-73
2021/07/22 14:11:29;;;;;;;;;;;24.50;54.70;;;;;;5038430;28;19932;-73
2021/07/22 14:13:55;;;;;;;;;;;24.50;54.90;;;;;;5047052;28;20012;-73
2021/07/22 14:16:22;;;;;;;;;;;24.50;55.00;;;;;;5039926;28;19933;-73
2021/07/22 14:18:51;;;;;;;;;;;24.50;55.10;;;;;;5043883;28;20265;-72